createdAt,value
2024-02-29T00:00:50.365Z,24.00
2024-02-29T00:01:47.688Z,22.65
2024-02-29T00:02:45.268Z,21.67
2024-02-29T00:03:42.306Z,23.05
2024-02-29T00:04:39.515Z,23.38
2024-02-29T00:05:38.268Z,20.67
2024-02-29T00:06:36.163Z,23.00
2024-02-29T00:07:33.392Z,23.25
2024-02-29T00:08:30.453Z,22.75
2024-02-29T00:09:27.639Z,21.08
2024-02-29T00:10:24.799Z,23.00
2024-02-29T00:11:22.650Z,23.58
2024-02-29T00:12:20.206Z,26.58
2024-02-29T00:13:17.217Z,21.92
2024-02-29T00:14:14.477Z,22.45
2024-02-29T00:15:12.620Z,22.83
2024-02-29T00:16:09.663Z,22.83
2024-02-29T00:17:07.417Z,23.50
2024-02-29T00:18:04.741Z,21.67
2024-02-29T00:19:01.957Z,21.62
2024-02-29T00:19:59.316Z,22.77
2024-02-29T00:20:56.539Z,20.55
2024-02-29T00:21:53.837Z,21.92
2024-02-29T00:22:51.051Z,19.15
2024-02-29T00:23:48.452Z,23.95
2024-02-29T00:24:45.497Z,20.48
2024-02-29T00:25:42.642Z,21.95
2024-02-29T00:26:39.770Z,23.45
2024-02-29T00:27:36.915Z,22.90
2024-02-29T00:28:33.980Z,22.42
2024-02-29T00:29:31.216Z,22.55
2024-02-29T00:30:28.431Z,22.67
2024-02-29T00:31:26.134Z,21.67
2024-02-29T00:32:23.356Z,22.33
2024-02-29T00:33:20.488Z,22.60
2024-02-29T00:34:17.682Z,24.12
2024-02-29T00:35:14.984Z,21.67
2024-02-29T00:36:12.142Z,23.83
2024-02-29T00:37:09.291Z,21.20
2024-02-29T00:38:06.568Z,22.60
2024-02-29T00:39:11.492Z,21.20
2024-02-29T00:40:12.190Z,22.40
2024-02-29T00:41:09.498Z,22.70
2024-02-29T00:42:06.785Z,22.75
2024-02-29T00:43:04.310Z,23.10
2024-02-29T00:44:01.594Z,21.98
2024-02-29T00:44:58.866Z,22.13
2024-02-29T00:45:56.284Z,22.62
2024-02-29T00:46:53.444Z,20.45
2024-02-29T00:47:52.252Z,21.77
2024-02-29T00:48:49.599Z,20.55
2024-02-29T00:49:46.795Z,22.42
2024-02-29T00:50:43.910Z,21.52
2024-02-29T00:51:41.000Z,20.95
2024-02-29T00:52:39.401Z,22.40
2024-02-29T00:53:36.556Z,23.27
2024-02-29T00:54:33.819Z,21.10
2024-02-29T00:55:30.955Z,22.37
2024-02-29T00:56:28.044Z,21.83
2024-02-29T00:57:25.508Z,22.13
2024-02-29T00:58:23.406Z,24.77
2024-02-29T00:59:20.487Z,24.90
2024-02-29T01:00:17.842Z,21.85
2024-02-29T01:01:15.088Z,23.90
2024-02-29T01:02:12.340Z,20.20
2024-02-29T01:03:10.226Z,22.30
2024-02-29T01:04:07.401Z,19.00
2024-02-29T01:05:05.807Z,18.58
2024-02-29T01:06:03.043Z,19.48
2024-02-29T01:07:00.147Z,18.67
2024-02-29T01:07:57.230Z,17.83
2024-02-29T01:08:54.345Z,18.08
2024-02-29T01:09:51.540Z,18.20
2024-02-29T01:10:49.044Z,18.45
2024-02-29T01:11:46.318Z,18.02
2024-02-29T01:12:44.123Z,20.90
2024-02-29T01:13:41.388Z,18.58
2024-02-29T01:14:38.540Z,20.40
2024-02-29T01:15:35.810Z,17.00
2024-02-29T01:16:32.884Z,18.08
2024-02-29T01:17:30.162Z,18.42
2024-02-29T01:18:27.548Z,17.92
2024-02-29T01:19:24.745Z,18.37
2024-02-29T01:20:21.891Z,17.85
2024-02-29T01:21:19.132Z,19.85
2024-02-29T01:22:18.027Z,20.33
2024-02-29T01:23:15.616Z,16.55
2024-02-29T01:24:12.705Z,18.27
2024-02-29T01:25:10.344Z,20.50
2024-02-29T01:26:08.176Z,20.90
2024-02-29T01:27:05.418Z,19.00
2024-02-29T01:28:02.513Z,22.17
2024-02-29T01:28:59.756Z,18.35
2024-02-29T01:29:56.871Z,20.35
2024-02-29T01:30:54.045Z,19.62
2024-02-29T01:31:51.188Z,16.42
2024-02-29T01:32:48.721Z,16.85
2024-02-29T01:33:45.905Z,18.45
2024-02-29T01:34:43.115Z,20.83
2024-02-29T01:35:40.277Z,20.08
2024-02-29T01:36:37.454Z,21.17
2024-02-29T01:37:34.600Z,20.52
2024-02-29T01:38:31.663Z,17.33
2024-02-29T01:39:28.860Z,18.67
2024-02-29T01:40:26.532Z,20.50
2024-02-29T01:41:23.863Z,18.05
2024-02-29T01:42:21.024Z,41.08
2024-02-29T01:43:18.267Z,21.48
2024-02-29T01:44:15.463Z,19.23
2024-02-29T01:45:13.646Z,17.23
2024-02-29T01:46:15.212Z,18.98
2024-02-29T01:47:14.249Z,19.15
2024-02-29T01:48:12.213Z,17.30
2024-02-29T01:49:09.555Z,16.83
2024-02-29T01:50:09.455Z,20.62
2024-02-29T01:51:08.212Z,17.70
2024-02-29T01:52:05.557Z,19.10
2024-02-29T01:53:02.842Z,18.83
2024-02-29T01:53:59.988Z,17.45
2024-02-29T01:54:57.157Z,18.37
2024-02-29T01:55:54.406Z,18.40
2024-02-29T01:56:52.185Z,19.60
2024-02-29T01:57:49.662Z,19.58
2024-02-29T01:58:47.003Z,19.25
2024-02-29T01:59:44.773Z,18.35
2024-02-29T02:00:42.061Z,17.45
2024-02-29T02:01:40.214Z,19.87
2024-02-29T02:02:40.055Z,19.23
2024-02-29T02:03:38.708Z,18.23
2024-02-29T02:04:36.049Z,16.80
2024-02-29T02:05:33.152Z,18.87
2024-02-29T02:06:30.283Z,22.10
2024-02-29T02:07:27.576Z,18.37
2024-02-29T02:08:27.646Z,19.12
2024-02-29T02:09:25.367Z,21.02
2024-02-29T02:10:22.975Z,18.85
2024-02-29T02:11:20.235Z,20.60
2024-02-29T02:12:17.497Z,20.42
2024-02-29T02:13:14.754Z,19.27
2024-02-29T02:14:11.896Z,20.20
2024-02-29T02:15:09.668Z,18.92
2024-02-29T02:16:07.623Z,18.23
2024-02-29T02:17:04.986Z,21.83
2024-02-29T02:18:02.071Z,20.90
2024-02-29T02:18:59.298Z,19.55
2024-02-29T02:19:57.351Z,19.67
2024-02-29T02:20:57.300Z,19.73
2024-02-29T02:21:54.523Z,20.30
2024-02-29T02:22:51.843Z,21.50
2024-02-29T02:23:48.867Z,21.30
2024-02-29T02:24:46.065Z,20.70
2024-02-29T02:25:43.269Z,19.92
2024-02-29T02:26:40.290Z,18.30
2024-02-29T02:27:40.409Z,18.10
2024-02-29T02:28:37.540Z,21.67
2024-02-29T02:29:34.773Z,23.20
2024-02-29T02:30:32.275Z,21.23
2024-02-29T02:31:30.660Z,22.85
2024-02-29T02:32:27.923Z,19.17
2024-02-29T02:33:25.202Z,19.00
2024-02-29T02:34:22.309Z,19.50
2024-02-29T02:35:19.493Z,18.10
2024-02-29T02:36:16.562Z,18.17
2024-02-29T02:37:13.686Z,20.75
2024-02-29T02:38:10.952Z,20.15
2024-02-29T02:39:09.425Z,19.52
2024-02-29T02:40:07.449Z,19.33
2024-02-29T02:41:04.861Z,22.00
2024-02-29T02:42:02.722Z,23.90
2024-02-29T02:43:00.006Z,19.35
2024-02-29T02:43:57.118Z,18.52
2024-02-29T02:44:54.330Z,21.12
2024-02-29T02:45:51.478Z,20.58
2024-02-29T02:46:49.445Z,22.83
2024-02-29T02:47:46.739Z,22.10
2024-02-29T02:48:44.334Z,24.85
2024-02-29T02:49:44.189Z,20.62
2024-02-29T02:50:41.347Z,19.57
2024-02-29T02:51:38.606Z,21.40
2024-02-29T02:52:35.826Z,23.08
2024-02-29T02:53:33.126Z,19.70
2024-02-29T02:54:30.403Z,22.92
2024-02-29T02:55:27.660Z,21.15
2024-02-29T02:56:24.848Z,20.73
2024-02-29T02:57:21.925Z,23.00
2024-02-29T02:58:18.940Z,22.33
2024-02-29T02:59:16.085Z,23.80
2024-02-29T03:00:13.970Z,22.87
2024-02-29T03:01:11.173Z,21.33
2024-02-29T03:02:08.470Z,21.42
2024-02-29T03:03:06.003Z,21.80
2024-02-29T03:04:03.110Z,21.23
2024-02-29T03:05:03.086Z,18.80
2024-02-29T03:06:00.207Z,20.77
2024-02-29T03:06:57.304Z,21.52
2024-02-29T03:07:54.303Z,21.70
2024-02-29T03:08:51.360Z,19.75
2024-02-29T03:09:48.625Z,21.30
2024-02-29T03:10:45.719Z,21.73
2024-02-29T03:11:42.875Z,19.10
2024-02-29T03:12:40.149Z,19.52
2024-02-29T03:13:37.777Z,18.67
2024-02-29T03:14:34.898Z,22.33
2024-02-29T03:15:32.083Z,20.15
2024-02-29T03:16:29.361Z,22.40
2024-02-29T03:17:26.414Z,21.27
2024-02-29T03:18:23.490Z,21.15
2024-02-29T03:19:20.591Z,19.45
2024-02-29T03:20:17.845Z,21.48
2024-02-29T03:21:16.122Z,22.65
2024-02-29T03:22:13.436Z,21.27
2024-02-29T03:23:10.576Z,19.95
2024-02-29T03:24:07.798Z,20.40
2024-02-29T03:25:05.166Z,19.73
2024-02-29T03:26:02.413Z,20.90
2024-02-29T03:26:59.547Z,21.40
2024-02-29T03:27:56.957Z,21.05
2024-02-29T03:28:53.983Z,21.85
2024-02-29T03:29:51.375Z,23.08
2024-02-29T03:30:48.427Z,20.88
2024-02-29T03:31:46.837Z,21.70
2024-02-29T03:32:44.740Z,21.92
2024-02-29T03:33:42.319Z,21.15
2024-02-29T03:34:39.499Z,21.05
2024-02-29T03:35:36.622Z,21.85
2024-02-29T03:36:33.900Z,22.98
2024-02-29T03:37:30.992Z,22.20
2024-02-29T03:38:28.234Z,24.15
2024-02-29T03:39:25.326Z,22.13
2024-02-29T03:40:22.403Z,20.12
2024-02-29T03:41:19.723Z,21.23
2024-02-29T03:42:18.762Z,22.80
2024-02-29T03:43:16.171Z,23.02
2024-02-29T03:44:13.416Z,20.33
2024-02-29T03:45:10.734Z,21.83
2024-02-29T03:46:07.971Z,21.77
2024-02-29T03:47:06.122Z,20.35
2024-02-29T03:48:03.282Z,22.08
2024-02-29T03:49:00.704Z,20.92
2024-02-29T03:49:58.964Z,20.88
2024-02-29T03:50:56.067Z,21.48
2024-02-29T03:51:53.156Z,20.42
2024-02-29T03:52:50.238Z,22.92
2024-02-29T03:53:47.375Z,21.50
2024-02-29T03:54:46.537Z,20.40
2024-02-29T03:55:45.033Z,23.65
2024-02-29T03:56:42.149Z,22.92
2024-02-29T03:57:39.227Z,20.55
2024-02-29T03:58:36.414Z,20.60
2024-02-29T03:59:34.056Z,21.00
2024-02-29T04:00:31.353Z,21.70
2024-02-29T04:01:28.756Z,20.90
2024-02-29T04:02:25.904Z,22.65
2024-02-29T04:03:23.158Z,20.40
2024-02-29T04:04:21.522Z,19.08
2024-02-29T04:05:18.678Z,24.25
2024-02-29T04:06:15.779Z,20.33
2024-02-29T04:07:12.925Z,19.90
2024-02-29T04:08:12.851Z,22.80
2024-02-29T04:09:10.850Z,20.62
2024-02-29T04:10:08.385Z,23.70
2024-02-29T04:11:05.867Z,21.55
2024-02-29T04:12:03.036Z,23.40
2024-02-29T04:13:00.221Z,22.73
2024-02-29T04:13:57.691Z,20.33
2024-02-29T04:14:54.927Z,20.50
2024-02-29T04:15:52.014Z,21.00
2024-02-29T04:16:49.109Z,22.52
2024-02-29T04:17:46.219Z,21.02
2024-02-29T04:18:43.378Z,20.65
2024-02-29T04:19:40.772Z,21.75
2024-02-29T04:20:37.881Z,21.12
2024-02-29T04:21:35.521Z,21.60
2024-02-29T04:22:32.519Z,24.90
2024-02-29T04:23:29.572Z,21.62
2024-02-29T04:24:26.634Z,19.83
2024-02-29T04:25:26.645Z,20.20
2024-02-29T04:26:25.543Z,20.40
2024-02-29T04:27:22.608Z,20.50
2024-02-29T04:28:19.817Z,22.95
2024-02-29T04:29:16.989Z,19.35
2024-02-29T04:30:15.406Z,19.48
2024-02-29T04:31:12.674Z,21.77
2024-02-29T04:32:09.961Z,21.95
2024-02-29T04:33:08.170Z,23.80
2024-02-29T04:34:05.353Z,22.67
2024-02-29T04:35:02.420Z,22.40
2024-02-29T04:35:59.575Z,23.35
2024-02-29T04:36:56.681Z,25.62
2024-02-29T04:37:53.844Z,21.08
2024-02-29T04:38:51.418Z,21.33
2024-02-29T04:39:48.592Z,22.35
2024-02-29T04:40:45.709Z,24.77
2024-02-29T04:41:43.028Z,19.87
2024-02-29T04:42:41.256Z,21.45
2024-02-29T04:43:38.698Z,22.65
2024-02-29T04:44:35.649Z,21.20
2024-02-29T04:45:32.810Z,24.27
2024-02-29T04:46:30.521Z,22.73
2024-02-29T04:47:27.643Z,19.95
2024-02-29T04:48:24.696Z,22.13
2024-02-29T04:49:21.836Z,22.10
2024-02-29T04:50:19.783Z,24.00
2024-02-29T04:51:16.928Z,22.48
2024-02-29T04:52:14.070Z,23.00
2024-02-29T04:53:11.343Z,21.33
2024-02-29T04:54:08.916Z,22.33
2024-02-29T04:55:06.481Z,21.58
2024-02-29T04:56:05.543Z,22.60
2024-02-29T04:57:02.979Z,22.65
2024-02-29T04:58:00.153Z,24.55
2024-02-29T04:58:57.273Z,23.27
2024-02-29T04:59:54.566Z,21.00
2024-02-29T05:00:51.970Z,20.73
2024-02-29T05:01:49.233Z,21.40
2024-02-29T05:02:46.506Z,23.12
2024-02-29T05:03:43.592Z,21.35
2024-02-29T05:04:40.966Z,24.87
2024-02-29T05:05:38.126Z,24.83
2024-02-29T05:06:35.310Z,20.27
2024-02-29T05:07:33.043Z,22.02
2024-02-29T05:08:30.202Z,19.87
2024-02-29T05:09:28.136Z,21.90
2024-02-29T05:10:25.260Z,21.87
2024-02-29T05:11:22.442Z,18.73
2024-02-29T05:12:21.263Z,21.58
2024-02-29T05:13:18.354Z,20.73
2024-02-29T05:14:15.429Z,22.83
2024-02-29T05:15:13.014Z,19.90
2024-02-29T05:16:10.226Z,21.85
2024-02-29T05:17:07.420Z,21.27
2024-02-29T05:18:05.124Z,23.50
2024-02-29T05:19:02.552Z,23.67
2024-02-29T05:20:00.508Z,19.55
2024-02-29T05:20:57.645Z,20.95
2024-02-29T05:21:56.647Z,21.92
2024-02-29T05:22:55.178Z,22.98
2024-02-29T05:23:52.334Z,22.08
2024-02-29T05:24:49.494Z,21.75
2024-02-29T05:25:46.459Z,20.85
2024-02-29T05:26:43.636Z,25.15
2024-02-29T05:27:40.863Z,21.87
2024-02-29T05:28:38.250Z,24.17
2024-02-29T05:29:35.453Z,19.40
2024-02-29T05:30:32.573Z,21.80
2024-02-29T05:31:29.664Z,24.58
2024-02-29T05:32:26.812Z,24.58
2024-02-29T05:33:24.131Z,19.67
2024-02-29T05:34:25.363Z,23.20
2024-02-29T05:35:24.415Z,19.62
2024-02-29T05:36:21.681Z,20.20
2024-02-29T05:37:19.127Z,21.73
2024-02-29T05:38:16.474Z,22.77
2024-02-29T05:39:13.670Z,22.05
2024-02-29T05:40:12.074Z,22.65
2024-02-29T05:41:09.414Z,23.10
2024-02-29T05:42:06.873Z,22.02
2024-02-29T05:43:05.091Z,22.23
2024-02-29T05:44:02.246Z,22.05
2024-02-29T05:44:59.396Z,21.23
2024-02-29T05:45:56.635Z,20.88
2024-02-29T05:46:53.658Z,22.45
2024-02-29T05:47:51.968Z,22.73
2024-02-29T05:48:49.227Z,23.02
2024-02-29T05:49:46.269Z,23.58
2024-02-29T05:50:43.364Z,22.45
2024-02-29T05:51:40.414Z,21.77
2024-02-29T05:52:37.918Z,25.33
2024-02-29T05:53:35.720Z,22.87
2024-02-29T05:54:32.808Z,23.40
2024-02-29T05:55:29.925Z,23.83
2024-02-29T05:56:27.017Z,23.45
2024-02-29T05:57:25.959Z,23.62
2024-02-29T05:58:23.047Z,20.73
2024-02-29T05:59:21.956Z,23.02
2024-02-29T06:00:19.413Z,22.15
2024-02-29T06:01:16.670Z,20.42
2024-02-29T06:02:14.100Z,24.25
2024-02-29T06:03:11.518Z,22.42
2024-02-29T06:04:08.699Z,20.70
2024-02-29T06:05:07.444Z,22.90
2024-02-29T06:06:06.130Z,21.70
2024-02-29T06:07:03.289Z,22.30
2024-02-29T06:08:00.355Z,20.52
2024-02-29T06:08:57.369Z,22.10
2024-02-29T06:09:54.383Z,20.95
2024-02-29T06:10:51.502Z,23.00
2024-02-29T06:11:49.395Z,23.30
2024-02-29T06:12:47.127Z,21.48
2024-02-29T06:13:44.741Z,22.20
2024-02-29T06:14:41.996Z,22.48
2024-02-29T06:15:39.315Z,23.90
2024-02-29T06:16:36.611Z,25.12
2024-02-29T06:17:33.821Z,22.27
2024-02-29T06:18:31.007Z,20.88
2024-02-29T06:19:28.557Z,25.35
2024-02-29T06:20:25.535Z,21.87
2024-02-29T06:21:22.670Z,20.60
2024-02-29T06:22:24.396Z,21.12
2024-02-29T06:23:21.521Z,22.52
2024-02-29T06:24:20.364Z,21.75
2024-02-29T06:25:19.187Z,21.83
2024-02-29T06:26:16.586Z,22.77
2024-02-29T06:27:13.773Z,20.42
2024-02-29T06:28:10.978Z,22.87
2024-02-29T06:29:08.064Z,23.42
2024-02-29T06:30:07.723Z,22.40
2024-02-29T06:31:05.062Z,24.63
2024-02-29T06:32:03.241Z,25.62
2024-02-29T06:33:00.879Z,23.42
2024-02-29T06:33:59.586Z,24.10
2024-02-29T06:34:56.730Z,22.13
2024-02-29T06:35:53.980Z,23.45
2024-02-29T06:36:51.314Z,22.77
2024-02-29T06:37:48.428Z,20.95
2024-02-29T06:38:45.675Z,21.55
2024-02-29T06:39:43.018Z,22.05
2024-02-29T06:40:40.057Z,23.52
2024-02-29T06:41:37.891Z,22.95
2024-02-29T06:42:35.133Z,22.52
2024-02-29T06:43:33.412Z,24.33
2024-02-29T06:44:30.710Z,23.70
2024-02-29T06:45:27.869Z,21.12
2024-02-29T06:46:24.934Z,22.90
2024-02-29T06:47:22.097Z,24.87
2024-02-29T06:48:20.199Z,23.38
2024-02-29T06:49:17.331Z,21.87
2024-02-29T06:50:14.625Z,22.05
2024-02-29T06:51:11.663Z,22.55
2024-02-29T06:52:08.814Z,20.60
2024-02-29T06:53:05.828Z,19.75
2024-02-29T06:54:04.109Z,20.40
2024-02-29T06:55:01.397Z,21.80
2024-02-29T06:55:58.875Z,20.90
2024-02-29T06:56:56.186Z,22.70
2024-02-29T06:57:53.322Z,20.67
2024-02-29T06:58:50.699Z,22.60
2024-02-29T06:59:49.924Z,20.48
2024-02-29T07:00:49.432Z,21.50
2024-02-29T07:01:46.673Z,22.62
2024-02-29T07:02:43.927Z,22.42
2024-02-29T07:03:41.428Z,20.77
2024-02-29T07:04:39.406Z,24.58
2024-02-29T07:05:38.366Z,22.55
2024-02-29T07:06:36.225Z,22.37
2024-02-29T07:07:33.429Z,20.02
2024-02-29T07:08:32.638Z,19.25
2024-02-29T07:09:29.723Z,24.05
2024-02-29T07:10:26.767Z,24.60
2024-02-29T07:11:24.409Z,20.60
2024-02-29T07:12:22.006Z,20.20
2024-02-29T07:13:19.272Z,19.25
2024-02-29T07:14:17.989Z,20.42
2024-02-29T07:15:15.632Z,18.87
2024-02-29T07:16:12.784Z,20.30
2024-02-29T07:17:09.996Z,19.65
2024-02-29T07:18:07.901Z,20.40
2024-02-29T07:19:05.545Z,19.85
2024-02-29T07:20:05.122Z,19.85
2024-02-29T07:21:02.258Z,20.00
2024-02-29T07:21:59.383Z,19.10
2024-02-29T07:22:57.998Z,19.80
2024-02-29T07:23:54.996Z,22.10
2024-02-29T07:24:52.057Z,20.88
2024-02-29T07:25:49.244Z,22.23
2024-02-29T07:26:46.606Z,23.12
2024-02-29T07:27:46.257Z,20.75
2024-02-29T07:28:43.476Z,24.77
2024-02-29T07:29:40.605Z,25.92
2024-02-29T07:30:37.984Z,26.10
2024-02-29T07:31:35.074Z,22.83
2024-02-29T07:32:32.145Z,21.52
2024-02-29T07:33:30.056Z,26.02
2024-02-29T07:34:27.166Z,23.90
2024-02-29T07:35:24.666Z,28.27
2024-02-29T07:36:21.836Z,26.42
2024-02-29T07:37:19.175Z,27.15
2024-02-29T07:38:16.416Z,31.37
2024-02-29T07:39:13.904Z,28.38
2024-02-29T07:40:11.165Z,32.53
2024-02-29T07:41:08.318Z,34.85
2024-02-29T07:42:05.591Z,34.30
2024-02-29T07:43:02.650Z,35.08
2024-02-29T07:43:59.774Z,32.20
2024-02-29T07:44:57.794Z,34.65
2024-02-29T07:45:55.007Z,36.42
2024-02-29T07:46:52.257Z,32.17
2024-02-29T07:47:49.320Z,31.92
2024-02-29T07:48:46.517Z,32.25
2024-02-29T07:49:43.907Z,29.70
2024-02-29T07:50:40.964Z,32.47
2024-02-29T07:51:38.125Z,31.10
2024-02-29T07:52:39.740Z,34.88
2024-02-29T07:53:37.018Z,29.90
2024-02-29T07:54:34.138Z,33.95
2024-02-29T07:55:31.496Z,32.42
2024-02-29T07:56:30.322Z,31.75
2024-02-29T07:57:31.106Z,34.13
2024-02-29T07:59:27.016Z,30.73
2024-02-29T08:00:24.439Z,33.90
2024-02-29T08:01:21.644Z,28.50
2024-02-29T08:02:21.195Z,34.35
2024-02-29T08:03:19.573Z,33.72
2024-02-29T08:04:16.790Z,31.25
2024-02-29T08:05:14.267Z,32.72
2024-02-29T08:06:11.300Z,32.40
2024-02-29T08:07:08.450Z,30.08
2024-02-29T08:08:06.015Z,29.92
2024-02-29T08:09:09.507Z,38.20
2024-02-29T08:10:08.343Z,30.52
2024-02-29T08:11:08.639Z,31.15
2024-02-29T08:12:07.091Z,32.25
2024-02-29T08:13:04.499Z,32.90
2024-02-29T08:14:02.273Z,34.17
2024-02-29T08:14:59.483Z,33.17
2024-02-29T08:15:56.705Z,33.60
2024-02-29T08:16:53.692Z,33.28
2024-02-29T08:17:50.963Z,31.55
2024-02-29T08:18:48.826Z,33.03
2024-02-29T08:19:47.068Z,32.33
2024-02-29T08:20:47.452Z,31.87
2024-02-29T08:21:44.720Z,29.83
2024-02-29T08:22:41.978Z,33.30
2024-02-29T08:23:39.040Z,33.22
2024-02-29T08:24:36.134Z,35.00
2024-02-29T08:25:33.516Z,33.95
2024-02-29T08:26:30.890Z,29.50
2024-02-29T08:27:28.624Z,32.63
2024-02-29T08:28:26.301Z,31.67
2024-02-29T08:29:23.389Z,31.52
2024-02-29T08:30:21.054Z,36.35
2024-02-29T08:31:18.989Z,31.95
2024-02-29T08:32:16.344Z,32.08
2024-02-29T08:33:13.627Z,32.53
2024-02-29T08:34:11.051Z,34.33
2024-02-29T08:35:09.029Z,35.95
2024-02-29T08:36:06.300Z,32.78
2024-02-29T08:37:03.715Z,33.78
2024-02-29T08:38:01.128Z,33.20
2024-02-29T08:39:00.127Z,35.75
2024-02-29T08:39:57.917Z,32.08
2024-02-29T08:43:05.975Z,30.35
2024-02-29T08:44:04.663Z,34.50
2024-02-29T08:45:01.937Z,33.03
2024-02-29T08:45:59.072Z,32.75
2024-02-29T08:46:56.132Z,31.92
2024-02-29T08:47:53.115Z,31.62
2024-02-29T08:48:50.300Z,39.65
2024-02-29T08:49:47.385Z,33.45
2024-02-29T08:50:44.523Z,31.75
2024-02-29T08:51:42.035Z,35.33
2024-02-29T08:52:40.637Z,30.05
2024-02-29T08:53:37.747Z,36.65
2024-02-29T08:54:36.085Z,31.35
2024-02-29T08:55:33.286Z,33.45
2024-02-29T08:56:30.410Z,31.48
2024-02-29T08:57:27.571Z,31.67
2024-02-29T08:58:25.047Z,31.25
2024-02-29T08:59:22.592Z,28.73
2024-02-29T09:00:20.337Z,31.35
2024-02-29T09:01:18.072Z,30.92
2024-02-29T09:02:15.330Z,32.53
2024-02-29T09:03:14.925Z,27.92
2024-02-29T09:04:12.076Z,33.17
2024-02-29T09:05:09.609Z,30.30
2024-02-29T09:06:06.869Z,29.15
2024-02-29T09:07:04.910Z,32.83
2024-02-29T09:08:02.575Z,33.08
2024-02-29T09:08:59.945Z,33.83
2024-02-29T09:09:57.123Z,33.78
2024-02-29T09:10:54.481Z,36.00
2024-02-29T09:11:52.415Z,38.55
2024-02-29T09:12:49.478Z,37.92
2024-02-29T09:13:47.282Z,32.53
2024-02-29T09:14:47.718Z,35.83
2024-02-29T09:15:45.634Z,30.95
2024-02-29T09:16:46.051Z,34.55
2024-02-29T09:17:43.811Z,32.35
2024-02-29T09:18:41.225Z,31.90
2024-02-29T09:19:38.495Z,32.65
2024-02-29T09:20:35.568Z,35.00
2024-02-29T09:21:32.843Z,34.33
2024-02-29T09:22:29.985Z,30.90
2024-02-29T09:23:27.755Z,32.50
2024-02-29T09:24:25.021Z,32.53
2024-02-29T09:25:22.237Z,32.63
2024-02-29T09:26:19.899Z,32.53
2024-02-29T09:27:17.185Z,31.62
2024-02-29T09:28:14.464Z,32.28
2024-02-29T09:29:11.825Z,31.40
2024-02-29T09:30:09.278Z,33.33
2024-02-29T09:31:06.599Z,32.33
2024-02-29T09:32:06.614Z,32.60
2024-02-29T09:33:04.014Z,34.00
2024-02-29T09:34:01.323Z,30.90
2024-02-29T09:34:58.492Z,32.65
2024-02-29T09:35:59.236Z,32.33
2024-02-29T09:36:56.645Z,30.37
2024-02-29T09:37:53.796Z,34.05
2024-02-29T09:38:50.987Z,34.15
2024-02-29T09:39:48.635Z,32.97
2024-02-29T09:40:49.669Z,36.70
2024-02-29T09:42:11.168Z,35.50
2024-02-29T09:43:11.957Z,34.03
2024-02-29T09:44:10.080Z,32.13
2024-02-29T09:45:08.630Z,32.22
2024-02-29T09:46:07.234Z,32.83
2024-02-29T09:47:06.327Z,34.20
2024-02-29T09:48:04.696Z,35.63
2024-02-29T09:49:01.955Z,32.45
2024-02-29T09:50:05.031Z,32.15
2024-02-29T09:51:04.034Z,33.45
2024-02-29T09:52:01.613Z,33.72
2024-02-29T09:53:00.196Z,32.22
2024-02-29T09:53:58.766Z,33.25
2024-02-29T09:54:56.984Z,34.80
2024-02-29T09:55:54.177Z,32.78
2024-02-29T09:56:52.009Z,36.28
2024-02-29T09:57:49.255Z,32.85
2024-02-29T09:58:46.557Z,31.30
2024-02-29T09:59:44.162Z,33.30
2024-02-29T10:00:41.298Z,33.00
2024-02-29T10:01:38.572Z,35.42
2024-02-29T10:02:36.586Z,33.15
2024-02-29T10:03:33.874Z,39.58
2024-02-29T10:04:31.053Z,35.45
2024-02-29T10:05:28.302Z,37.67
2024-02-29T10:06:25.935Z,37.05
2024-02-29T10:07:23.150Z,36.80
2024-02-29T10:08:20.416Z,35.92
2024-02-29T10:09:17.612Z,36.65
2024-02-29T10:10:16.338Z,33.60
2024-02-29T10:11:13.802Z,35.88
2024-02-29T10:12:16.875Z,34.13
2024-02-29T10:13:14.089Z,33.83
2024-02-29T10:14:28.336Z,36.65
2024-02-29T10:15:28.930Z,35.88
2024-02-29T10:16:28.574Z,33.20
2024-02-29T10:17:26.190Z,32.33
2024-02-29T10:18:23.345Z,34.88
2024-02-29T10:19:21.628Z,32.70
2024-02-29T10:20:21.713Z,31.80
2024-02-29T10:21:18.921Z,33.75
2024-02-29T10:22:22.205Z,29.05
2024-02-29T10:23:19.225Z,30.88
2024-02-29T10:24:16.500Z,32.30
2024-02-29T10:25:14.689Z,33.42
2024-02-29T10:26:11.982Z,34.58
2024-02-29T10:27:09.858Z,32.17
2024-02-29T10:28:07.320Z,30.48
2024-02-29T10:29:10.138Z,30.27
2024-02-29T10:30:11.648Z,32.15
2024-02-29T10:31:08.937Z,30.90
2024-02-29T10:32:06.186Z,35.33
2024-02-29T10:33:04.643Z,32.58
2024-02-29T10:34:01.794Z,30.48
2024-02-29T10:34:58.894Z,31.40
2024-02-29T10:35:56.396Z,31.42
2024-02-29T10:36:53.455Z,30.77
2024-02-29T10:37:55.211Z,34.47
2024-02-29T10:38:52.725Z,31.50
2024-02-29T10:39:49.892Z,31.70
2024-02-29T10:40:51.075Z,31.87
2024-02-29T10:41:51.782Z,29.83
2024-02-29T10:43:56.357Z,29.05
2024-02-29T10:44:54.367Z,30.48
2024-02-29T10:45:52.349Z,34.50
2024-02-29T10:46:51.454Z,35.78
2024-02-29T10:48:00.481Z,48.63
2024-02-29T10:49:36.767Z,31.85
2024-02-29T10:50:50.093Z,33.53
2024-02-29T10:52:06.126Z,31.77
2024-02-29T10:53:20.829Z,31.70
2024-02-29T10:54:21.938Z,32.22
2024-02-29T10:55:26.143Z,32.33
2024-02-29T10:56:24.915Z,31.35
2024-02-29T10:57:28.068Z,32.70
2024-02-29T10:58:29.711Z,31.08
2024-02-29T10:59:26.953Z,29.05
2024-02-29T11:00:24.314Z,32.50
2024-02-29T11:01:21.631Z,28.98
2024-02-29T11:02:19.722Z,29.25
2024-02-29T11:03:17.148Z,28.30
2024-02-29T11:04:17.595Z,30.62
2024-02-29T11:05:14.944Z,31.45
2024-02-29T11:06:14.329Z,29.15
2024-02-29T11:07:11.493Z,29.15
2024-02-29T11:08:09.681Z,30.02
2024-02-29T11:09:10.013Z,27.98
2024-02-29T11:10:08.510Z,27.08
2024-02-29T11:11:13.280Z,30.05
2024-02-29T11:12:17.473Z,30.88
2024-02-29T11:13:20.490Z,31.75
2024-02-29T11:14:20.719Z,31.37
2024-02-29T11:15:27.050Z,32.67
2024-02-29T11:16:24.493Z,29.60
2024-02-29T11:17:21.794Z,30.98
2024-02-29T11:18:26.040Z,32.28
2024-02-29T11:19:23.197Z,33.30
2024-02-29T11:20:21.836Z,30.85
2024-02-29T11:21:30.005Z,31.35
2024-02-29T11:22:35.061Z,29.90
2024-02-29T11:23:39.617Z,30.60
2024-02-29T11:24:37.519Z,28.58
2024-02-29T11:25:34.733Z,31.70
2024-02-29T11:26:36.843Z,32.78
2024-02-29T11:27:35.470Z,35.15
2024-02-29T11:28:43.043Z,34.53
2024-02-29T11:29:43.532Z,33.95
2024-02-29T11:30:42.465Z,33.97
2024-02-29T11:31:45.442Z,26.17
2024-02-29T11:32:42.621Z,21.62
2024-02-29T11:33:40.004Z,27.92
2024-02-29T11:34:37.146Z,25.40
2024-02-29T11:35:34.663Z,27.02
2024-02-29T11:36:33.707Z,27.40
2024-02-29T11:37:34.330Z,25.35
2024-02-29T11:38:40.275Z,23.92
2024-02-29T11:39:38.005Z,22.25
2024-02-29T11:40:37.000Z,24.80
2024-02-29T11:41:34.203Z,26.33
2024-02-29T11:42:31.511Z,25.02
2024-02-29T11:43:28.768Z,26.98
2024-02-29T11:44:25.937Z,20.77
2024-02-29T11:45:23.813Z,26.50
2024-02-29T11:46:21.316Z,21.92
2024-02-29T11:47:18.549Z,25.83
2024-02-29T11:48:16.608Z,22.80
2024-02-29T11:49:15.538Z,25.12
2024-02-29T11:50:14.452Z,26.08
2024-02-29T11:51:11.773Z,23.05
2024-02-29T11:52:09.187Z,23.85
2024-02-29T11:53:06.246Z,26.77
2024-02-29T11:54:03.337Z,24.05
2024-02-29T11:55:00.591Z,20.50
2024-02-29T11:56:03.098Z,20.02
2024-02-29T11:57:08.227Z,22.48
2024-02-29T11:58:05.505Z,21.85
2024-02-29T11:59:08.325Z,22.17
2024-02-29T12:00:08.176Z,21.55
2024-02-29T12:01:05.655Z,21.85
2024-02-29T12:02:07.264Z,22.48
2024-02-29T12:03:05.762Z,24.05
2024-02-29T12:04:03.184Z,23.23
2024-02-29T12:05:00.326Z,20.35
2024-02-29T12:05:59.127Z,22.67
2024-02-29T12:06:57.417Z,21.60
2024-02-29T12:07:54.411Z,22.08
2024-02-29T12:08:51.518Z,22.20
2024-02-29T12:09:48.951Z,23.05
2024-02-29T12:10:49.126Z,22.75
2024-02-29T12:11:46.805Z,20.55
2024-02-29T12:12:43.990Z,24.52
2024-02-29T12:13:41.338Z,21.62
2024-02-29T12:14:40.098Z,22.10
2024-02-29T12:15:37.528Z,21.42
2024-02-29T12:16:37.343Z,20.58
2024-02-29T12:17:34.614Z,23.95
2024-02-29T12:18:34.261Z,21.62
2024-02-29T12:19:31.570Z,22.90
2024-02-29T12:20:29.108Z,22.70
2024-02-29T12:21:28.072Z,23.27
2024-02-29T12:22:25.285Z,25.27
2024-02-29T12:23:22.378Z,21.62
2024-02-29T12:24:20.295Z,19.67
2024-02-29T12:25:18.739Z,20.17
2024-02-29T12:26:17.563Z,21.60
2024-02-29T12:27:14.668Z,19.80
2024-02-29T12:28:13.234Z,22.95
2024-02-29T12:29:10.437Z,20.62
2024-02-29T12:30:09.118Z,21.92
2024-02-29T12:31:09.792Z,18.67
2024-02-29T12:32:06.960Z,21.58